sensor_id;sensor_type;location;lat;lon;timestamp;temperature;humidity
4564;DHT22;2294;51.818;8.484;2023-05-13T00:01:45;12.20;99.90
4564;DHT22;2294;51.818;8.484;2023-05-13T00:04:12;12.10;99.90
4564;DHT22;2294;51.818;8.484;2023-05-13T00:06:40;12.10;99.90
4564;DHT22;2294;51.818;8.484;2023-05-13T00:09:07;12.10;99.90
4564;DHT22;2294;51.818;8.484;2023-05-13T00:11:34;12.10;99.90
4564;DHT22;2294;51.818;8.484;2023-05-13T00:14:01;12.10;99.90
4564;DHT22;2294;51.818;8.484;2023-05-13T00:16:28;12.10;99.90
4564;DHT22;2294;51.818;8.484;2023-05-13T00:18:55;12.10;99.90
4564;DHT22;2294;51.818;8.484;2023-05-13T00:21:22;12.10;99.90
4564;DHT22;2294;51.818;8.484;2023-05-13T00:23:50;12.20;99.90
4564;DHT22;2294;51.818;8.484;2023-05-13T00:26:17;12.20;99.90
4564;DHT22;2294;51.818;8.484;2023-05-13T00:28:44;12.20;99.90
4564;DHT22;2294;51.818;8.484;2023-05-13T00:31:11;12.10;99.90
4564;DHT22;2294;51.818;8.484;2023-05-13T00:33:38;12.00;99.90
4564;DHT22;2294;51.818;8.484;2023-05-13T00:36:06;12.10;99.90
4564;DHT22;2294;51.818;8.484;2023-05-13T00:38:34;12.10;99.90
4564;DHT22;2294;51.818;8.484;2023-05-13T00:41:03;12.20;99.90
4564;DHT22;2294;51.818;8.484;2023-05-13T00:43:31;12.40;99.90
4564;DHT22;2294;51.818;8.484;2023-05-13T00:45:59;12.30;99.90
4564;DHT22;2294;51.818;8.484;2023-05-13T00:48:26;12.20;99.90
4564;DHT22;2294;51.818;8.484;2023-05-13T00:50:52;12.20;99.90
4564;DHT22;2294;51.818;8.484;2023-05-13T00:53:20;12.30;99.90
4564;DHT22;2294;51.818;8.484;2023-05-13T00:55:47;12.30;99.90
4564;DHT22;2294;51.818;8.484;2023-05-13T00:58:15;12.10;99.90
4564;DHT22;2294;51.818;8.484;2023-05-13T01:00:47;12.10;99.90
4564;DHT22;2294;51.818;8.484;2023-05-13T01:03:20;12.10;99.90
4564;DHT22;2294;51.818;8.484;2023-05-13T01:05:53;12.10;99.90
4564;DHT22;2294;51.818;8.484;2023-05-13T01:08:31;12.10;99.90
4564;DHT22;2294;51.818;8.484;2023-05-13T01:11:03;12.00;99.90
4564;DHT22;2294;51.818;8.484;2023-05-13T01:13:35;12.20;99.90
4564;DHT22;2294;51.818;8.484;2023-05-13T01:18:42;11.90;99.90
4564;DHT22;2294;51.818;8.484;2023-05-13T01:21:10;12.00;99.90
4564;DHT22;2294;51.818;8.484;2023-05-13T01:23:38;12.00;99.90
4564;DHT22;2294;51.818;8.484;2023-05-13T01:31:00;12.00;99.90
4564;DHT22;2294;51.818;8.484;2023-05-13T01:33:27;11.80;99.90
4564;DHT22;2294;51.818;8.484;2023-05-13T01:35:55;11.70;99.90
4564;DHT22;2294;51.818;8.484;2023-05-13T01:38:23;11.80;99.90
4564;DHT22;2294;51.818;8.484;2023-05-13T01:40:54;11.80;99.90
4564;DHT22;2294;51.818;8.484;2023-05-13T01:43:21;11.80;99.90
4564;DHT22;2294;51.818;8.484;2023-05-13T01:45:48;11.80;99.90
4564;DHT22;2294;51.818;8.484;2023-05-13T01:48:16;11.70;99.90
4564;DHT22;2294;51.818;8.484;2023-05-13T01:50:43;11.80;99.90
4564;DHT22;2294;51.818;8.484;2023-05-13T01:53:10;11.70;99.90
4564;DHT22;2294;51.818;8.484;2023-05-13T01:55:37;11.80;99.90
4564;DHT22;2294;51.818;8.484;2023-05-13T01:58:05;11.70;99.90
4564;DHT22;2294;51.818;8.484;2023-05-13T02:00:32;11.70;99.90
4564;DHT22;2294;51.818;8.484;2023-05-13T02:02:59;11.80;99.90
4564;DHT22;2294;51.818;8.484;2023-05-13T02:05:26;11.90;99.90
4564;DHT22;2294;51.818;8.484;2023-05-13T02:07:53;11.90;99.90
4564;DHT22;2294;51.818;8.484;2023-05-13T02:10:20;11.90;99.90
4564;DHT22;2294;51.818;8.484;2023-05-13T02:12:46;12.10;99.90
4564;DHT22;2294;51.818;8.484;2023-05-13T02:15:15;12.10;99.90
4564;DHT22;2294;51.818;8.484;2023-05-13T02:17:42;12.00;99.90
4564;DHT22;2294;51.818;8.484;2023-05-13T02:20:09;11.90;99.90
4564;DHT22;2294;51.818;8.484;2023-05-13T02:22:36;11.90;99.90
4564;DHT22;2294;51.818;8.484;2023-05-13T02:25:04;11.90;99.90
4564;DHT22;2294;51.818;8.484;2023-05-13T02:27:31;11.90;99.90
4564;DHT22;2294;51.818;8.484;2023-05-13T02:29:57;12.00;99.90
4564;DHT22;2294;51.818;8.484;2023-05-13T02:32:26;11.90;99.90
4564;DHT22;2294;51.818;8.484;2023-05-13T02:34:52;11.80;99.90
4564;DHT22;2294;51.818;8.484;2023-05-13T02:37:19;11.90;99.90
4564;DHT22;2294;51.818;8.484;2023-05-13T02:39:46;11.80;99.90
4564;DHT22;2294;51.818;8.484;2023-05-13T02:42:13;11.80;99.90
4564;DHT22;2294;51.818;8.484;2023-05-13T02:44:40;11.80;99.90
4564;DHT22;2294;51.818;8.484;2023-05-13T02:47:07;11.80;99.90
4564;DHT22;2294;51.818;8.484;2023-05-13T02:49:35;11.80;99.90
4564;DHT22;2294;51.818;8.484;2023-05-13T02:52:02;11.70;99.90
4564;DHT22;2294;51.818;8.484;2023-05-13T02:54:29;11.70;99.90
4564;DHT22;2294;51.818;8.484;2023-05-13T02:59:23;11.80;99.90
4564;DHT22;2294;51.818;8.484;2023-05-13T03:01:50;11.80;99.90
4564;DHT22;2294;51.818;8.484;2023-05-13T03:04:17;11.80;99.90
4564;DHT22;2294;51.818;8.484;2023-05-13T03:06:45;11.90;99.90
4564;DHT22;2294;51.818;8.484;2023-05-13T03:09:12;11.80;99.90
4564;DHT22;2294;51.818;8.484;2023-05-13T03:11:39;11.70;99.90
4564;DHT22;2294;51.818;8.484;2023-05-13T03:14:06;11.90;99.90
4564;DHT22;2294;51.818;8.484;2023-05-13T03:16:33;11.90;99.90
4564;DHT22;2294;51.818;8.484;2023-05-13T03:18:59;11.80;99.90
4564;DHT22;2294;51.818;8.484;2023-05-13T04:20:27;11.90;99.90
4564;DHT22;2294;51.818;8.484;2023-05-13T04:27:49;12.10;99.90
4564;DHT22;2294;51.818;8.484;2023-05-13T04:30:16;12.20;99.90
4564;DHT22;2294;51.818;8.484;2023-05-13T04:32:44;12.40;99.90
4564;DHT22;2294;51.818;8.484;2023-05-13T05:04:39;13.90;99.90
4564;DHT22;2294;51.818;8.484;2023-05-13T06:55:16;14.70;99.90
4564;DHT22;2294;51.818;8.484;2023-05-13T06:57:44;14.70;99.90
4564;DHT22;2294;51.818;8.484;2023-05-13T07:00:12;15.10;99.90
4564;DHT22;2294;51.818;8.484;2023-05-13T07:02:39;15.10;99.90
4564;DHT22;2294;51.818;8.484;2023-05-13T07:05:07;15.20;99.90
4564;DHT22;2294;51.818;8.484;2023-05-13T07:07:35;15.20;99.90
4564;DHT22;2294;51.818;8.484;2023-05-13T07:10:02;15.30;99.90
4564;DHT22;2294;51.818;8.484;2023-05-13T07:12:29;15.40;99.90
4564;DHT22;2294;51.818;8.484;2023-05-13T07:14:57;15.50;99.90
4564;DHT22;2294;51.818;8.484;2023-05-13T07:17:24;15.50;99.90
4564;DHT22;2294;51.818;8.484;2023-05-13T07:19:50;15.50;99.90
4564;DHT22;2294;51.818;8.484;2023-05-13T07:22:17;15.40;99.90
4564;DHT22;2294;51.818;8.484;2023-05-13T07:24:46;15.70;99.90
4564;DHT22;2294;51.818;8.484;2023-05-13T07:27:12;15.60;99.90
4564;DHT22;2294;51.818;8.484;2023-05-13T07:29:39;15.70;99.90
4564;DHT22;2294;51.818;8.484;2023-05-13T07:32:07;15.90;99.90
4564;DHT22;2294;51.818;8.484;2023-05-13T07:34:34;15.90;99.90
4564;DHT22;2294;51.818;8.484;2023-05-13T07:37:01;15.80;99.90
4564;DHT22;2294;51.818;8.484;2023-05-13T07:39:28;15.80;99.90
4564;DHT22;2294;51.818;8.484;2023-05-13T07:41:56;15.80;99.90
4564;DHT22;2294;51.818;8.484;2023-05-13T07:44:23;15.90;99.90
4564;DHT22;2294;51.818;8.484;2023-05-13T07:46:50;16.10;99.90
4564;DHT22;2294;51.818;8.484;2023-05-13T07:49:18;16.60;99.90
4564;DHT22;2294;51.818;8.484;2023-05-13T07:51:46;16.70;99.90
4564;DHT22;2294;51.818;8.484;2023-05-13T07:54:12;16.80;99.90
4564;DHT22;2294;51.818;8.484;2023-05-13T07:56:39;16.50;99.90
4564;DHT22;2294;51.818;8.484;2023-05-13T07:59:10;17.00;99.90
4564;DHT22;2294;51.818;8.484;2023-05-13T08:01:37;17.00;99.90
4564;DHT22;2294;51.818;8.484;2023-05-13T08:04:04;16.80;99.90
4564;DHT22;2294;51.818;8.484;2023-05-13T08:06:31;17.10;99.90
4564;DHT22;2294;51.818;8.484;2023-05-13T08:08:57;17.20;99.90
4564;DHT22;2294;51.818;8.484;2023-05-13T08:11:26;17.20;99.90
4564;DHT22;2294;51.818;8.484;2023-05-13T08:13:52;17.10;99.90
4564;DHT22;2294;51.818;8.484;2023-05-13T08:16:21;17.50;99.90
4564;DHT22;2294;51.818;8.484;2023-05-13T08:18:48;17.70;99.90
4564;DHT22;2294;51.818;8.484;2023-05-13T08:21:15;17.70;99.90
4564;DHT22;2294;51.818;8.484;2023-05-13T08:23:42;17.90;99.90
4564;DHT22;2294;51.818;8.484;2023-05-13T08:26:09;17.90;99.90
4564;DHT22;2294;51.818;8.484;2023-05-13T08:28:36;18.00;99.90
4564;DHT22;2294;51.818;8.484;2023-05-13T08:31:03;18.10;99.90
4564;DHT22;2294;51.818;8.484;2023-05-13T08:33:31;18.50;99.90
4564;DHT22;2294;51.818;8.484;2023-05-13T08:35:59;18.50;99.90
4564;DHT22;2294;51.818;8.484;2023-05-13T08:38:26;18.50;99.90
4564;DHT22;2294;51.818;8.484;2023-05-13T08:40:53;18.70;99.90
4564;DHT22;2294;51.818;8.484;2023-05-13T08:43:23;18.30;99.90
4564;DHT22;2294;51.818;8.484;2023-05-13T08:45:50;18.40;99.90
4564;DHT22;2294;51.818;8.484;2023-05-13T08:48:19;18.80;99.90
4564;DHT22;2294;51.818;8.484;2023-05-13T08:50:47;18.80;99.90
4564;DHT22;2294;51.818;8.484;2023-05-13T08:53:16;19.10;99.90
4564;DHT22;2294;51.818;8.484;2023-05-13T08:55:43;18.70;99.90
4564;DHT22;2294;51.818;8.484;2023-05-13T08:58:10;19.00;99.90
4564;DHT22;2294;51.818;8.484;2023-05-13T09:00:38;19.50;99.90
4564;DHT22;2294;51.818;8.484;2023-05-13T09:03:05;19.10;99.90
4564;DHT22;2294;51.818;8.484;2023-05-13T09:05:32;19.30;99.90
4564;DHT22;2294;51.818;8.484;2023-05-13T09:08:05;19.40;99.90
4564;DHT22;2294;51.818;8.484;2023-05-13T09:10:33;19.20;99.90
4564;DHT22;2294;51.818;8.484;2023-05-13T09:13:00;19.60;99.90
4564;DHT22;2294;51.818;8.484;2023-05-13T09:15:28;19.50;99.90
4564;DHT22;2294;51.818;8.484;2023-05-13T09:17:58;19.40;99.90
4564;DHT22;2294;51.818;8.484;2023-05-13T09:20:26;19.20;99.90
4564;DHT22;2294;51.818;8.484;2023-05-13T09:22:55;19.50;99.90
4564;DHT22;2294;51.818;8.484;2023-05-13T09:25:24;19.60;99.90
4564;DHT22;2294;51.818;8.484;2023-05-13T09:27:53;19.70;99.90
4564;DHT22;2294;51.818;8.484;2023-05-13T09:30:23;19.80;99.90
4564;DHT22;2294;51.818;8.484;2023-05-13T09:33:05;19.50;99.90
4564;DHT22;2294;51.818;8.484;2023-05-13T09:35:34;19.60;99.90
4564;DHT22;2294;51.818;8.484;2023-05-13T09:38:03;19.70;99.90
4564;DHT22;2294;51.818;8.484;2023-05-13T09:40:38;19.90;99.90
4564;DHT22;2294;51.818;8.484;2023-05-13T09:43:06;19.60;99.90
4564;DHT22;2294;51.818;8.484;2023-05-13T09:45:33;20.00;99.90
4564;DHT22;2294;51.818;8.484;2023-05-13T09:48:01;20.20;99.90
4564;DHT22;2294;51.818;8.484;2023-05-13T09:50:28;20.20;99.90
4564;DHT22;2294;51.818;8.484;2023-05-13T09:52:56;20.00;99.90
4564;DHT22;2294;51.818;8.484;2023-05-13T09:55:23;20.00;99.90
4564;DHT22;2294;51.818;8.484;2023-05-13T09:57:52;20.30;99.90
4564;DHT22;2294;51.818;8.484;2023-05-13T10:00:19;20.50;99.90
4564;DHT22;2294;51.818;8.484;2023-05-13T10:02:46;20.30;99.90
4564;DHT22;2294;51.818;8.484;2023-05-13T10:05:13;20.40;99.90
4564;DHT22;2294;51.818;8.484;2023-05-13T10:07:41;20.40;99.90
4564;DHT22;2294;51.818;8.484;2023-05-13T10:10:09;20.30;99.90
4564;DHT22;2294;51.818;8.484;2023-05-13T10:12:38;20.50;99.90
4564;DHT22;2294;51.818;8.484;2023-05-13T10:15:09;20.90;99.90
4564;DHT22;2294;51.818;8.484;2023-05-13T10:17:37;20.80;99.90
4564;DHT22;2294;51.818;8.484;2023-05-13T10:20:05;20.60;99.90
4564;DHT22;2294;51.818;8.484;2023-05-13T10:22:32;20.60;99.90
4564;DHT22;2294;51.818;8.484;2023-05-13T10:25:01;20.90;99.90
4564;DHT22;2294;51.818;8.484;2023-05-13T10:27:30;21.10;99.90
4564;DHT22;2294;51.818;8.484;2023-05-13T10:29:58;21.20;99.90
4564;DHT22;2294;51.818;8.484;2023-05-13T10:32:28;21.40;99.90
4564;DHT22;2294;51.818;8.484;2023-05-13T10:34:58;21.70;99.90
4564;DHT22;2294;51.818;8.484;2023-05-13T10:37:55;21.50;99.90
4564;DHT22;2294;51.818;8.484;2023-05-13T10:40:43;21.50;99.90
4564;DHT22;2294;51.818;8.484;2023-05-13T10:43:17;21.70;99.90
4564;DHT22;2294;51.818;8.484;2023-05-13T10:45:45;21.70;99.90
4564;DHT22;2294;51.818;8.484;2023-05-13T10:48:15;21.50;99.90
4564;DHT22;2294;51.818;8.484;2023-05-13T10:50:50;21.50;99.90
4564;DHT22;2294;51.818;8.484;2023-05-13T10:53:20;21.90;99.90
4564;DHT22;2294;51.818;8.484;2023-05-13T10:55:52;21.90;99.90
4564;DHT22;2294;51.818;8.484;2023-05-13T10:58:21;22.40;99.90
4564;DHT22;2294;51.818;8.484;2023-05-13T11:01:15;22.30;99.90
4564;DHT22;2294;51.818;8.484;2023-05-13T11:03:51;22.00;99.90
4564;DHT22;2294;51.818;8.484;2023-05-13T11:06:20;22.10;99.90
4564;DHT22;2294;51.818;8.484;2023-05-13T11:08:50;21.80;1.00
4564;DHT22;2294;51.818;8.484;2023-05-13T11:11:31;21.40;99.90
4564;DHT22;2294;51.818;8.484;2023-05-13T11:14:13;22.00;1.00
4564;DHT22;2294;51.818;8.484;2023-05-13T11:16:45;22.50;98.60
4564;DHT22;2294;51.818;8.484;2023-05-13T11:19:20;22.50;1.00
4564;DHT22;2294;51.818;8.484;2023-05-13T11:21:49;22.90;1.00
4564;DHT22;2294;51.818;8.484;2023-05-13T11:24:19;23.10;1.00
4564;DHT22;2294;51.818;8.484;2023-05-13T11:26:48;23.40;1.00
4564;DHT22;2294;51.818;8.484;2023-05-13T11:29:26;23.70;53.60
4564;DHT22;2294;51.818;8.484;2023-05-13T11:31:54;23.60;99.90
4564;DHT22;2294;51.818;8.484;2023-05-13T11:34:24;23.70;46.70
4564;DHT22;2294;51.818;8.484;2023-05-13T11:36:56;23.80;1.00
4564;DHT22;2294;51.818;8.484;2023-05-13T11:39:24;23.20;1.00
4564;DHT22;2294;51.818;8.484;2023-05-13T11:41:52;22.70;99.90
4564;DHT22;2294;51.818;8.484;2023-05-13T11:44:20;22.30;99.90
4564;DHT22;2294;51.818;8.484;2023-05-13T11:46:55;21.50;99.90
4564;DHT22;2294;51.818;8.484;2023-05-13T11:49:38;21.40;99.90
4564;DHT22;2294;51.818;8.484;2023-05-13T11:52:07;21.50;99.90
4564;DHT22;2294;51.818;8.484;2023-05-13T11:54:41;21.70;99.90
4564;DHT22;2294;51.818;8.484;2023-05-13T11:57:18;22.10;99.90
4564;DHT22;2294;51.818;8.484;2023-05-13T11:59:58;22.70;99.90
4564;DHT22;2294;51.818;8.484;2023-05-13T12:02:27;23.20;99.90
4564;DHT22;2294;51.818;8.484;2023-05-13T12:04:59;23.20;1.00
4564;DHT22;2294;51.818;8.484;2023-05-13T12:07:26;23.10;1.00
4564;DHT22;2294;51.818;8.484;2023-05-13T12:09:55;23.40;99.90
4564;DHT22;2294;51.818;8.484;2023-05-13T12:12:23;23.40;99.90
4564;DHT22;2294;51.818;8.484;2023-05-13T12:14:51;22.90;1.00
4564;DHT22;2294;51.818;8.484;2023-05-13T12:17:20;22.60;99.90
4564;DHT22;2294;51.818;8.484;2023-05-13T12:20:09;23.10;1.00
4564;DHT22;2294;51.818;8.484;2023-05-13T12:22:47;23.10;99.90
4564;DHT22;2294;51.818;8.484;2023-05-13T12:25:35;23.40;99.90
4564;DHT22;2294;51.818;8.484;2023-05-13T12:28:06;22.90;99.90
4564;DHT22;2294;51.818;8.484;2023-05-13T12:30:33;22.50;99.90
4564;DHT22;2294;51.818;8.484;2023-05-13T12:33:00;21.80;1.00
4564;DHT22;2294;51.818;8.484;2023-05-13T12:35:30;21.60;1.00
4564;DHT22;2294;51.818;8.484;2023-05-13T12:38:01;21.90;1.00
4564;DHT22;2294;51.818;8.484;2023-05-13T12:40:29;21.80;1.00
4564;DHT22;2294;51.818;8.484;2023-05-13T12:42:56;21.90;1.00
4564;DHT22;2294;51.818;8.484;2023-05-13T12:45:27;23.00;99.90
4564;DHT22;2294;51.818;8.484;2023-05-13T12:47:55;23.70;1.00
4564;DHT22;2294;51.818;8.484;2023-05-13T12:50:22;23.60;1.00
4564;DHT22;2294;51.818;8.484;2023-05-13T12:52:51;23.40;99.90
4564;DHT22;2294;51.818;8.484;2023-05-13T12:55:18;24.00;1.00
4564;DHT22;2294;51.818;8.484;2023-05-13T12:57:53;24.00;99.90
4564;DHT22;2294;51.818;8.484;2023-05-13T13:00:21;24.30;1.00
4564;DHT22;2294;51.818;8.484;2023-05-13T13:02:47;24.10;99.90
4564;DHT22;2294;51.818;8.484;2023-05-13T13:05:14;24.00;99.90
4564;DHT22;2294;51.818;8.484;2023-05-13T13:07:41;24.10;99.90
4564;DHT22;2294;51.818;8.484;2023-05-13T13:10:10;24.20;99.90
4564;DHT22;2294;51.818;8.484;2023-05-13T13:12:37;23.60;99.90
4564;DHT22;2294;51.818;8.484;2023-05-13T13:15:05;23.90;99.90
4564;DHT22;2294;51.818;8.484;2023-05-13T13:17:32;24.70;99.90
4564;DHT22;2294;51.818;8.484;2023-05-13T13:19:59;25.30;99.90
4564;DHT22;2294;51.818;8.484;2023-05-13T13:22:26;24.90;99.90
4564;DHT22;2294;51.818;8.484;2023-05-13T13:24:53;24.80;99.90
4564;DHT22;2294;51.818;8.484;2023-05-13T13:27:21;24.80;99.90
4564;DHT22;2294;51.818;8.484;2023-05-13T13:29:48;24.80;99.90
4564;DHT22;2294;51.818;8.484;2023-05-13T13:32:15;25.10;99.90
4564;DHT22;2294;51.818;8.484;2023-05-13T13:34:42;25.60;99.90
4564;DHT22;2294;51.818;8.484;2023-05-13T13:37:08;25.60;99.90
4564;DHT22;2294;51.818;8.484;2023-05-13T13:39:35;25.70;99.90
4564;DHT22;2294;51.818;8.484;2023-05-13T13:42:03;25.80;99.90
4564;DHT22;2294;51.818;8.484;2023-05-13T13:44:31;24.90;19.70
4564;DHT22;2294;51.818;8.484;2023-05-13T13:46:58;24.80;27.10
4564;DHT22;2294;51.818;8.484;2023-05-13T13:49:25;24.60;49.30
4564;DHT22;2294;51.818;8.484;2023-05-13T13:51:52;24.70;99.90
4564;DHT22;2294;51.818;8.484;2023-05-13T13:54:19;25.20;8.20
4564;DHT22;2294;51.818;8.484;2023-05-13T13:56:46;25.50;13.00
4564;DHT22;2294;51.818;8.484;2023-05-13T13:59:13;25.20;1.00
4564;DHT22;2294;51.818;8.484;2023-05-13T14:01:41;25.80;15.40
4564;DHT22;2294;51.818;8.484;2023-05-13T14:04:10;27.80;1.00
4564;DHT22;2294;51.818;8.484;2023-05-13T14:06:37;30.30;1.00
4564;DHT22;2294;51.818;8.484;2023-05-13T14:09:04;28.90;1.00
4564;DHT22;2294;51.818;8.484;2023-05-13T14:11:31;29.30;1.00
4564;DHT22;2294;51.818;8.484;2023-05-13T14:13:58;28.90;1.00
4564;DHT22;2294;51.818;8.484;2023-05-13T14:16:25;27.30;1.00
4564;DHT22;2294;51.818;8.484;2023-05-13T14:18:53;26.60;1.00
4564;DHT22;2294;51.818;8.484;2023-05-13T14:21:20;30.40;1.00
4564;DHT22;2294;51.818;8.484;2023-05-13T14:23:47;31.60;1.00
4564;DHT22;2294;51.818;8.484;2023-05-13T14:26:14;32.70;1.00
4564;DHT22;2294;51.818;8.484;2023-05-13T14:28:41;31.50;1.00
4564;DHT22;2294;51.818;8.484;2023-05-13T14:31:08;26.70;1.00
4564;DHT22;2294;51.818;8.484;2023-05-13T14:33:35;26.20;1.00
4564;DHT22;2294;51.818;8.484;2023-05-13T14:36:04;29.40;1.00
4564;DHT22;2294;51.818;8.484;2023-05-13T14:38:32;27.80;1.00
4564;DHT22;2294;51.818;8.484;2023-05-13T14:40:59;29.80;1.00
4564;DHT22;2294;51.818;8.484;2023-05-13T14:43:26;32.90;1.00
4564;DHT22;2294;51.818;8.484;2023-05-13T14:45:53;32.60;1.00
4564;DHT22;2294;51.818;8.484;2023-05-13T14:48:20;32.00;1.00
4564;DHT22;2294;51.818;8.484;2023-05-13T14:50:47;32.80;1.00
4564;DHT22;2294;51.818;8.484;2023-05-13T14:53:15;34.90;1.00
4564;DHT22;2294;51.818;8.484;2023-05-13T14:55:42;35.30;1.00
4564;DHT22;2294;51.818;8.484;2023-05-13T14:58:09;35.20;1.00
4564;DHT22;2294;51.818;8.484;2023-05-13T15:00:37;32.60;1.00
4564;DHT22;2294;51.818;8.484;2023-05-13T15:03:06;29.70;1.00
4564;DHT22;2294;51.818;8.484;2023-05-13T15:05:32;27.50;1.00
4564;DHT22;2294;51.818;8.484;2023-05-13T15:07:59;26.80;1.00
4564;DHT22;2294;51.818;8.484;2023-05-13T15:10:28;26.70;1.00
4564;DHT22;2294;51.818;8.484;2023-05-13T15:12:54;27.00;1.00
4564;DHT22;2294;51.818;8.484;2023-05-13T15:15:23;29.90;1.00
4564;DHT22;2294;51.818;8.484;2023-05-13T15:17:50;30.00;1.00
4564;DHT22;2294;51.818;8.484;2023-05-13T15:20:17;31.80;1.00
4564;DHT22;2294;51.818;8.484;2023-05-13T15:22:44;34.40;1.00
4564;DHT22;2294;51.818;8.484;2023-05-13T15:25:11;34.70;1.00
4564;DHT22;2294;51.818;8.484;2023-05-13T15:27:39;34.70;1.00
4564;DHT22;2294;51.818;8.484;2023-05-13T15:30:07;33.40;1.00
4564;DHT22;2294;51.818;8.484;2023-05-13T15:32:34;33.80;1.00
4564;DHT22;2294;51.818;8.484;2023-05-13T15:35:00;33.00;1.00
4564;DHT22;2294;51.818;8.484;2023-05-13T15:37:27;34.20;1.00
4564;DHT22;2294;51.818;8.484;2023-05-13T15:39:54;34.60;1.00
4564;DHT22;2294;51.818;8.484;2023-05-13T15:42:21;32.50;1.00
4564;DHT22;2294;51.818;8.484;2023-05-13T15:44:49;32.80;1.00
4564;DHT22;2294;51.818;8.484;2023-05-13T15:47:16;32.80;1.00
4564;DHT22;2294;51.818;8.484;2023-05-13T15:49:43;34.10;1.00
4564;DHT22;2294;51.818;8.484;2023-05-13T15:52:10;36.30;1.00
4564;DHT22;2294;51.818;8.484;2023-05-13T15:54:37;36.40;1.00
4564;DHT22;2294;51.818;8.484;2023-05-13T15:57:04;35.70;1.00
4564;DHT22;2294;51.818;8.484;2023-05-13T15:59:31;35.80;1.00
4564;DHT22;2294;51.818;8.484;2023-05-13T16:01:59;32.50;1.00
4564;DHT22;2294;51.818;8.484;2023-05-13T16:04:26;34.60;1.00
4564;DHT22;2294;51.818;8.484;2023-05-13T16:06:53;35.60;1.00
4564;DHT22;2294;51.818;8.484;2023-05-13T16:09:20;35.50;1.00
4564;DHT22;2294;51.818;8.484;2023-05-13T16:11:47;36.20;1.00
4564;DHT22;2294;51.818;8.484;2023-05-13T16:14:14;35.80;1.00
4564;DHT22;2294;51.818;8.484;2023-05-13T16:16:40;33.30;1.00
4564;DHT22;2294;51.818;8.484;2023-05-13T16:19:09;33.70;1.00
4564;DHT22;2294;51.818;8.484;2023-05-13T16:21:39;33.10;1.00
4564;DHT22;2294;51.818;8.484;2023-05-13T16:24:07;34.10;1.00
4564;DHT22;2294;51.818;8.484;2023-05-13T16:26:34;33.80;1.00
4564;DHT22;2294;51.818;8.484;2023-05-13T16:29:00;35.10;1.00
4564;DHT22;2294;51.818;8.484;2023-05-13T16:31:27;35.50;1.00
4564;DHT22;2294;51.818;8.484;2023-05-13T16:33:54;34.10;99.90
4564;DHT22;2294;51.818;8.484;2023-05-13T16:36:22;33.20;99.90
4564;DHT22;2294;51.818;8.484;2023-05-13T16:38:51;34.30;99.90
4564;DHT22;2294;51.818;8.484;2023-05-13T16:41:18;33.30;99.90
4564;DHT22;2294;51.818;8.484;2023-05-13T16:43:45;32.70;1.00
4564;DHT22;2294;51.818;8.484;2023-05-13T16:46:12;33.40;1.00
4564;DHT22;2294;51.818;8.484;2023-05-13T16:48:39;33.10;1.00
4564;DHT22;2294;51.818;8.484;2023-05-13T16:51:06;33.10;99.90
4564;DHT22;2294;51.818;8.484;2023-05-13T16:53:34;32.10;99.90
4564;DHT22;2294;51.818;8.484;2023-05-13T16:56:01;31.00;99.90
4564;DHT22;2294;51.818;8.484;2023-05-13T16:58:28;32.30;99.90
4564;DHT22;2294;51.818;8.484;2023-05-13T17:00:55;32.70;99.90
4564;DHT22;2294;51.818;8.484;2023-05-13T17:03:22;31.10;99.90
4564;DHT22;2294;51.818;8.484;2023-05-13T17:05:49;31.20;1.00
4564;DHT22;2294;51.818;8.484;2023-05-13T17:08:16;28.00;1.00
4564;DHT22;2294;51.818;8.484;2023-05-13T17:10:44;26.50;1.00
4564;DHT22;2294;51.818;8.484;2023-05-13T17:13:11;25.90;1.00
4564;DHT22;2294;51.818;8.484;2023-05-13T17:15:38;25.80;1.00
4564;DHT22;2294;51.818;8.484;2023-05-13T17:18:05;25.80;1.00
4564;DHT22;2294;51.818;8.484;2023-05-13T17:20:33;25.00;1.00
4564;DHT22;2294;51.818;8.484;2023-05-13T17:23:00;24.40;1.00
4564;DHT22;2294;51.818;8.484;2023-05-13T17:25:27;24.60;1.00
4564;DHT22;2294;51.818;8.484;2023-05-13T17:27:55;24.20;1.00
4564;DHT22;2294;51.818;8.484;2023-05-13T17:30:22;24.10;1.00
4564;DHT22;2294;51.818;8.484;2023-05-13T17:32:49;24.30;1.00
4564;DHT22;2294;51.818;8.484;2023-05-13T17:35:16;24.30;1.00
4564;DHT22;2294;51.818;8.484;2023-05-13T17:37:43;24.10;1.00
4564;DHT22;2294;51.818;8.484;2023-05-13T17:40:10;24.30;1.00
4564;DHT22;2294;51.818;8.484;2023-05-13T17:42:37;24.00;1.00
4564;DHT22;2294;51.818;8.484;2023-05-13T17:45:07;23.60;1.00
4564;DHT22;2294;51.818;8.484;2023-05-13T17:47:34;23.80;1.00
4564;DHT22;2294;51.818;8.484;2023-05-13T17:50:01;23.60;1.00
4564;DHT22;2294;51.818;8.484;2023-05-13T17:52:27;23.60;1.00
4564;DHT22;2294;51.818;8.484;2023-05-13T17:54:54;23.00;1.00
4564;DHT22;2294;51.818;8.484;2023-05-13T17:57:21;23.10;1.00
4564;DHT22;2294;51.818;8.484;2023-05-13T17:59:48;22.70;1.00
4564;DHT22;2294;51.818;8.484;2023-05-13T18:02:16;22.80;1.00
4564;DHT22;2294;51.818;8.484;2023-05-13T18:04:43;22.80;1.00
4564;DHT22;2294;51.818;8.484;2023-05-13T18:07:10;22.30;1.00
4564;DHT22;2294;51.818;8.484;2023-05-13T18:09:37;22.50;1.00
4564;DHT22;2294;51.818;8.484;2023-05-13T18:12:04;22.30;1.00
4564;DHT22;2294;51.818;8.484;2023-05-13T18:14:31;22.20;1.00
4564;DHT22;2294;51.818;8.484;2023-05-13T18:16:58;22.00;1.00
4564;DHT22;2294;51.818;8.484;2023-05-13T18:19:27;22.00;1.00
4564;DHT22;2294;51.818;8.484;2023-05-13T18:21:53;21.80;1.00
4564;DHT22;2294;51.818;8.484;2023-05-13T18:24:20;21.90;6.00
4564;DHT22;2294;51.818;8.484;2023-05-13T18:26:47;21.60;12.30
4564;DHT22;2294;51.818;8.484;2023-05-13T18:29:14;21.40;99.90
4564;DHT22;2294;51.818;8.484;2023-05-13T18:31:41;21.40;99.90
4564;DHT22;2294;51.818;8.484;2023-05-13T18:34:08;21.10;29.40
4564;DHT22;2294;51.818;8.484;2023-05-13T18:36:36;21.00;99.90
4564;DHT22;2294;51.818;8.484;2023-05-13T18:39:03;20.90;99.90
4564;DHT22;2294;51.818;8.484;2023-05-13T18:41:30;20.60;99.90
4564;DHT22;2294;51.818;8.484;2023-05-13T18:43:58;20.40;99.90
4564;DHT22;2294;51.818;8.484;2023-05-13T18:46:25;20.50;99.90
4564;DHT22;2294;51.818;8.484;2023-05-13T18:48:51;20.50;99.90
4564;DHT22;2294;51.818;8.484;2023-05-13T18:51:18;19.50;99.90
4564;DHT22;2294;51.818;8.484;2023-05-13T18:53:47;20.10;99.90
4564;DHT22;2294;51.818;8.484;2023-05-13T18:56:13;20.00;1.00
4564;DHT22;2294;51.818;8.484;2023-05-13T18:58:41;19.60;1.00
4564;DHT22;2294;51.818;8.484;2023-05-13T19:01:10;19.50;1.00
4564;DHT22;2294;51.818;8.484;2023-05-13T19:03:37;19.30;1.00
4564;DHT22;2294;51.818;8.484;2023-05-13T19:06:04;19.20;90.00
4564;DHT22;2294;51.818;8.484;2023-05-13T19:08:30;18.90;99.90
4564;DHT22;2294;51.818;8.484;2023-05-13T19:10:59;18.80;99.90
4564;DHT22;2294;51.818;8.484;2023-05-13T19:13:26;18.50;99.90
4564;DHT22;2294;51.818;8.484;2023-05-13T19:15:52;18.40;1.00
4564;DHT22;2294;51.818;8.484;2023-05-13T19:18:20;18.50;1.00
4564;DHT22;2294;51.818;8.484;2023-05-13T19:20:47;18.40;99.90
4564;DHT22;2294;51.818;8.484;2023-05-13T19:23:14;18.30;1.00
4564;DHT22;2294;51.818;8.484;2023-05-13T19:25:40;18.20;99.90
4564;DHT22;2294;51.818;8.484;2023-05-13T19:28:09;18.10;99.90
4564;DHT22;2294;51.818;8.484;2023-05-13T19:30:36;17.80;99.90
4564;DHT22;2294;51.818;8.484;2023-05-13T19:33:04;17.70;99.90
4564;DHT22;2294;51.818;8.484;2023-05-13T19:35:31;17.50;99.90
4564;DHT22;2294;51.818;8.484;2023-05-13T19:37:58;17.30;99.90
4564;DHT22;2294;51.818;8.484;2023-05-13T19:40:25;17.30;99.90
4564;DHT22;2294;51.818;8.484;2023-05-13T19:42:52;17.30;99.90
4564;DHT22;2294;51.818;8.484;2023-05-13T19:45:22;17.20;99.90